Time;durP1;ratioP1;P1;durP2;ratioP2;P2;SDS_P1;SDS_P2;PMS_P1;PMS_P2;Temp;Humidity;BMP_temperature;BMP_pressure;BME280_temperature;BME280_humidity;BME280_pressure;Samples;Min_cycle;Max_cycle;Signal;HPM_P1;HPM_P2
2023/07/23 00:00:24;;;;;;;;;;;;;;;22.20;43.48;99911.47;4995024;28;6791;-69
2023/07/23 00:02:50;;;;;;;;;;;;;;;22.23;43.42;99910.59;5002921;28;7094;-70
2023/07/23 00:05:16;;;;;;;;;;;;;;;22.26;43.10;99905.34;5016052;28;6808;-70
2023/07/23 00:07:41;;;;;;;;;;;;;;;22.32;42.28;99904.41;4985554;28;6874;-68
2023/07/23 00:10:09;;;;;;;;;;;;;;;22.38;42.01;99906.09;5013101;28;6864;-68
2023/07/23 00:12:35;;;;;;;;;;;;;;;22.42;42.15;99900.00;4984724;28;6961;-68
2023/07/23 00:15:04;;;;;;;;;;;;;;;22.48;41.59;99890.34;4981583;28;7003;-70
2023/07/23 00:17:30;;;;;;;;;;;;;;;22.53;41.53;99884.25;5002696;28;6819;-68
2023/07/23 00:19:55;;;;;;;;;;;;;;;22.57;41.76;99880.75;5002388;28;6978;-69
2023/07/23 00:22:21;;;;;;;;;;;;;;;22.60;41.36;99878.09;5012553;28;6921;-68
2023/07/23 00:24:46;;;;;;;;;;;;;;;22.62;41.04;99873.72;4995697;28;6780;-68
2023/07/23 00:27:13;;;;;;;;;;;;;;;22.65;41.13;99867.59;5010564;28;6800;-69
2023/07/23 00:29:40;;;;;;;;;;;;;;;22.66;41.15;99864.97;4997735;28;7133;-69
2023/07/23 00:32:06;;;;;;;;;;;;;;;22.70;40.45;99868.44;4978419;28;7194;-71
2023/07/23 00:34:31;;;;;;;;;;;;;;;22.71;40.27;99859.72;4994518;28;6856;-73
2023/07/23 00:36:57;;;;;;;;;;;;;;;22.73;40.11;99856.16;4996750;28;7210;-69
2023/07/23 00:39:22;;;;;;;;;;;;;;;22.75;40.17;99858.78;5012879;28;6952;-68
2023/07/23 00:41:49;;;;;;;;;;;;;;;22.77;40.35;99859.63;4991639;28;6780;-68
2023/07/23 00:44:16;;;;;;;;;;;;;;;22.80;39.75;99856.13;5012609;28;6820;-69
2023/07/23 00:46:42;;;;;;;;;;;;;;;22.82;40.17;99850.00;5014008;28;7010;-71
2023/07/23 00:49:07;;;;;;;;;;;;;;;22.84;39.68;99847.34;4996828;28;7143;-68
2023/07/23 00:51:33;;;;;;;;;;;;;;;22.87;39.73;99844.72;5012144;28;7017;-68
2023/07/23 00:53:59;;;;;;;;;;;;;;;22.87;39.49;99839.50;4997598;28;6828;-69
2023/07/23 00:56:25;;;;;;;;;;;;;;;22.88;39.57;99842.06;4994564;28;7035;-70
2023/07/23 00:58:51;;;;;;;;;;;;;;;22.89;39.27;99841.22;5011159;28;6909;-68
2023/07/23 01:01:18;;;;;;;;;;;;;;;22.90;39.47;99831.59;4996036;28;7141;-70
2023/07/23 01:03:43;;;;;;;;;;;;;;;22.92;39.37;99829.84;4997236;28;7237;-70
2023/07/23 01:06:11;;;;;;;;;;;;;;;22.93;39.30;99822.88;4995362;28;6784;-68
2023/07/23 01:08:38;;;;;;;;;;;;;;;22.92;38.90;99815.94;5008937;28;6802;-69
2023/07/23 01:11:04;;;;;;;;;;;;;;;22.91;38.98;99814.19;4995162;28;6815;-68
2023/07/23 01:13:29;;;;;;;;;;;;;;;22.89;39.14;99815.09;4988121;28;6784;-70
2023/07/23 01:15:56;;;;;;;;;;;;;;;22.86;38.86;99812.50;5009126;28;7121;-70
2023/07/23 01:18:23;;;;;;;;;;;;;;;22.85;39.15;99805.53;4993479;28;6807;-70
2023/07/23 01:20:49;;;;;;;;;;;;;;;22.84;39.34;99801.19;5010722;28;6875;-70
2023/07/23 01:23:14;;;;;;;;;;;;;;;22.82;39.16;99802.97;4995671;28;6969;-69
2023/07/23 01:25:40;;;;;;;;;;;;;;;22.80;39.10;99794.31;4997819;28;6859;-70
2023/07/23 01:28:07;;;;;;;;;;;;;;;22.80;39.02;99789.06;4996154;28;6938;-71
2023/07/23 01:30:32;;;;;;;;;;;;;;;22.80;38.98;99780.34;5008468;28;7252;-69
2023/07/23 01:32:59;;;;;;;;;;;;;;;22.81;38.84;99782.97;5003568;28;6775;-69
2023/07/23 01:35:25;;;;;;;;;;;;;;;22.83;39.08;99782.94;4993995;28;6957;-70
2023/07/23 01:37:51;;;;;;;;;;;;;;;22.82;39.02;99776.84;5006330;28;7042;-70
2023/07/23 01:40:17;;;;;;;;;;;;;;;22.83;38.92;99770.75;4995536;28;7270;-69
2023/07/23 01:42:46;;;;;;;;;;;;;;;22.83;39.02;99770.75;4991987;28;7152;-69
2023/07/23 01:45:13;;;;;;;;;;;;;;;22.87;38.49;99761.97;4977194;28;7451;-69
2023/07/23 01:47:39;;;;;;;;;;;;;;;22.89;38.62;99757.63;4994716;28;7082;-69
2023/07/23 01:50:05;;;;;;;;;;;;;;;22.93;38.41;99760.19;4992828;28;6795;-71
2023/07/23 01:52:30;;;;;;;;;;;;;;;22.95;38.73;99756.66;4982887;28;6999;-70
2023/07/23 01:54:56;;;;;;;;;;;;;;;22.99;38.31;99752.25;4992768;28;7306;-70
2023/07/23 01:57:22;;;;;;;;;;;;;;;23.01;38.23;99738.25;4991089;28;6784;-69
2023/07/23 01:59:47;;;;;;;;;;;;;;;23.03;38.16;99743.47;4993489;28;7133;-68
2023/07/23 02:02:13;;;;;;;;;;;;;;;23.06;38.19;99748.66;5000345;28;7215;-72
2023/07/23 02:04:38;;;;;;;;;;;;;;;23.08;38.10;99752.13;4993012;28;7195;-70
2023/07/23 02:07:04;;;;;;;;;;;;;;;23.11;38.24;99748.59;4981060;28;7156;-73
2023/07/23 02:09:29;;;;;;;;;;;;;;;23.12;38.09;99747.69;4991933;28;6966;-73
2023/07/23 02:11:55;;;;;;;;;;;;;;;23.14;38.16;99738.97;5015137;28;6784;-72
2023/07/23 02:14:20;;;;;;;;;;;;;;;23.15;38.21;99735.47;5014357;28;6942;-72
2023/07/23 02:16:46;;;;;;;;;;;;;;;23.15;37.74;99730.22;5002292;28;6972;-72
2023/07/23 02:19:12;;;;;;;;;;;;;;;23.19;37.57;99738.06;5007914;28;6780;-71
2023/07/23 02:21:38;;;;;;;;;;;;;;;23.19;38.05;99732.81;4993521;28;6979;-71
2023/07/23 02:24:07;;;;;;;;;;;;;;;23.21;37.70;99733.66;5011555;28;6792;-71
2023/07/23 02:26:33;;;;;;;;;;;;;;;23.21;37.63;99728.44;4997969;28;6812;-71
2023/07/23 02:28:58;;;;;;;;;;;;;;;23.21;37.84;99734.50;4994118;28;6858;-72
2023/07/23 02:31:23;;;;;;;;;;;;;;;23.21;37.82;99733.66;4993701;28;7348;-71
2023/07/23 02:33:49;;;;;;;;;;;;;;;23.20;37.32;99732.78;4994500;28;6872;-72
2023/07/23 02:36:14;;;;;;;;;;;;;;;23.23;37.70;99730.13;4998644;28;6843;-72
2023/07/23 02:38:40;;;;;;;;;;;;;;;23.25;37.18;99730.09;4982033;28;6975;-71
2023/07/23 02:41:06;;;;;;;;;;;;;;;23.27;37.86;99713.50;4996479;28;7025;-70
2023/07/23 02:43:32;;;;;;;;;;;;;;;23.30;37.69;99715.25;4996282;28;6867;-70
2023/07/23 02:45:57;;;;;;;;;;;;;;;23.34;37.11;99731.75;4993266;28;6818;-71
2023/07/23 02:48:23;;;;;;;;;;;;;;;23.35;37.00;99721.25;5007534;28;6938;-70
2023/07/23 02:50:50;;;;;;;;;;;;;;;23.37;37.21;99718.63;4978075;28;7218;-70
2023/07/23 02:53:16;;;;;;;;;;;;;;;23.39;36.72;99722.06;5013521;28;6799;-70
2023/07/23 02:55:41;;;;;;;;;;;;;;;23.40;36.75;99723.78;5010065;28;6974;-70
2023/07/23 02:58:07;;;;;;;;;;;;;;;23.38;37.06;99710.78;5006835;28;7226;-71
2023/07/23 03:00:33;;;;;;;;;;;;;;;23.39;37.26;99717.72;5009587;28;6842;-70
2023/07/23 03:02:58;;;;;;;;;;;;;;;23.40;36.53;99718.56;4995555;28;7137;-70
2023/07/23 03:05:24;;;;;;;;;;;;;;;23.38;37.30;99702.03;4995056;28;7479;-70
2023/07/23 03:07:51;;;;;;;;;;;;;;;23.38;37.47;99713.38;5010585;28;6962;-70
2023/07/23 03:10:17;;;;;;;;;;;;;;;23.37;37.08;99714.28;4993297;28;7323;-70
2023/07/23 03:12:42;;;;;;;;;;;;;;;23.36;36.92;99709.91;4978816;28;6981;-70
2023/07/23 03:15:08;;;;;;;;;;;;;;;23.36;37.03;99712.53;5000347;28;6986;-69
2023/07/23 03:17:34;;;;;;;;;;;;;;;23.36;37.28;99712.53;4995206;28;7031;-70
2023/07/23 03:19:59;;;;;;;;;;;;;;;23.35;37.15;99705.56;5008921;28;6795;-70
2023/07/23 03:22:25;;;;;;;;;;;;;;;23.34;36.78;99709.06;5012071;28;6835;-70
2023/07/23 03:24:50;;;;;;;;;;;;;;;23.36;36.89;99707.28;4997338;28;7245;-69
2023/07/23 03:27:15;;;;;;;;;;;;;;;23.35;37.11;99710.78;5012565;28;7160;-70
2023/07/23 03:29:41;;;;;;;;;;;;;;;23.35;37.29;99707.34;5012200;28;7910;-70
2023/07/23 03:32:06;;;;;;;;;;;;;;;23.32;36.56;99703.00;4978128;28;10474;-70
2023/07/23 03:34:32;;;;;;;;;;;;;;;23.30;36.80;99707.41;5005731;28;6995;-69
2023/07/23 03:36:57;;;;;;;;;;;;;;;23.29;37.09;99711.75;5012048;28;6946;-70
2023/07/23 03:39:23;;;;;;;;;;;;;;;23.26;37.17;99700.44;5012323;28;7243;-70
2023/07/23 03:41:49;;;;;;;;;;;;;;;23.26;36.96;99705.69;5011611;28;6784;-70
2023/07/23 03:44:15;;;;;;;;;;;;;;;23.23;37.06;99701.38;5013628;28;6811;-70
2023/07/23 03:46:58;;;;;;;;;;;;;;;23.21;37.14;99702.28;5011737;28;6787;-69
2023/07/23 03:49:23;;;;;;;;;;;;;;;23.20;36.88;99705.78;5001911;28;7082;-70
2023/07/23 03:51:49;;;;;;;;;;;;;;;23.16;37.45;99700.59;4999799;28;6848;-69
2023/07/23 03:54:14;;;;;;;;;;;;;;;23.15;37.08;99698.88;5001044;28;6995;-70
2023/07/23 03:56:39;;;;;;;;;;;;;;;23.13;36.81;99695.41;4997048;28;6795;-70
2023/07/23 03:59:05;;;;;;;;;;;;;;;23.10;37.23;99689.38;4999310;28;6831;-70
2023/07/23 04:01:31;;;;;;;;;;;;;;;23.08;37.08;99692.03;5010755;28;7223;-69
2023/07/23 04:03:56;;;;;;;;;;;;;;;23.07;37.72;99699.88;5013941;28;6860;-70
2023/07/23 04:06:22;;;;;;;;;;;;;;;23.03;37.36;99705.16;5000059;28;7162;-69
2023/07/23 04:08:47;;;;;;;;;;;;;;;23.02;37.24;99698.19;5009012;28;6902;-70
2023/07/23 04:11:13;;;;;;;;;;;;;;;23.01;37.86;99706.91;5013445;28;6939;-72
2023/07/23 04:13:38;;;;;;;;;;;;;;;22.99;37.66;99703.47;4990164;28;6979;-72
2023/07/23 04:16:11;;;;;;;;;;;;;;;22.97;37.72;99706.97;5014029;28;6784;-69
2023/07/23 04:18:50;;;;;;;;;;;;;;;22.96;37.77;99700.03;4999956;28;6872;-73
2023/07/23 04:21:18;;;;;;;;;;;;;;;22.94;37.15;99704.41;5001110;28;6811;-70
2023/07/23 04:23:50;;;;;;;;;;;;;;;22.93;37.28;99707.91;5001563;28;6875;-71
2023/07/23 04:26:17;;;;;;;;;;;;;;;22.91;37.92;99704.47;4995154;28;6876;-71
2023/07/23 04:28:44;;;;;;;;;;;;;;;22.91;37.73;99709.69;4997304;28;6811;-70
2023/07/23 04:31:09;;;;;;;;;;;;;;;22.89;37.65;99705.34;4996458;28;6981;-70
2023/07/23 04:33:35;;;;;;;;;;;;;;;22.89;37.57;99707.09;4997685;28;7223;-71
2023/07/23 04:36:02;;;;;;;;;;;;;;;22.87;37.93;99707.09;5016429;28;7155;-71
2023/07/23 04:38:28;;;;;;;;;;;;;;;22.87;38.01;99703.66;4997678;28;6812;-71
2023/07/23 04:40:53;;;;;;;;;;;;;;;22.86;37.73;99709.75;4996706;28;6959;-72
2023/07/23 04:43:19;;;;;;;;;;;;;;;22.86;38.16;99707.16;4995777;28;6792;-71
2023/07/23 04:45:44;;;;;;;;;;;;;;;22.85;37.86;99702.81;5010421;28;6788;-71
2023/07/23 04:48:12;;;;;;;;;;;;;;;22.84;38.04;99696.72;5000614;28;6919;-71
2023/07/23 04:50:37;;;;;;;;;;;;;;;22.88;38.20;99702.75;4996783;28;6816;-71
2023/07/23 04:53:03;;;;;;;;;;;;;;;22.87;38.06;99695.81;4997155;28;8066;-71
2023/07/23 04:55:28;;;;;;;;;;;;;;;22.89;38.02;99701.88;4996749;28;6951;-71
2023/07/23 04:57:54;;;;;;;;;;;;;;;22.91;38.28;99699.25;5010869;28;7029;-71
2023/07/23 05:00:19;;;;;;;;;;;;;;;22.91;38.28;99694.03;4978356;28;7259;-71
2023/07/23 05:02:45;;;;;;;;;;;;;;;22.90;38.01;99698.38;5008003;28;6831;-71
2023/07/23 05:05:10;;;;;;;;;;;;;;;22.91;38.41;99704.47;4997382;28;7512;-71
2023/07/23 05:07:36;;;;;;;;;;;;;;;22.90;38.09;99698.38;4994209;28;6959;-71
2023/07/23 05:10:02;;;;;;;;;;;;;;;22.91;38.21;99700.09;5012965;28;6796;-71
2023/07/23 05:12:28;;;;;;;;;;;;;;;22.92;38.49;99700.97;4994798;28;6948;-71
2023/07/23 05:15:09;;;;;;;;;;;;;;;22.93;38.25;99693.09;5012788;28;6996;-71
2023/07/23 05:17:35;;;;;;;;;;;;;;;22.94;38.11;99699.19;4990804;28;7272;-71
2023/07/23 05:20:00;;;;;;;;;;;;;;;22.95;38.42;99700.91;4993394;28;8153;-71
2023/07/23 05:22:25;;;;;;;;;;;;;;;22.96;38.21;99700.91;5011819;28;7210;-71
2023/07/23 05:24:51;;;;;;;;;;;;;;;22.97;38.38;99696.53;5012599;28;6950;-71
2023/07/23 05:27:16;;;;;;;;;;;;;;;22.98;38.35;99693.03;5005579;28;8587;-71
2023/07/23 05:29:42;;;;;;;;;;;;;;;22.99;38.04;99698.25;4990534;28;6779;-71
2023/07/23 05:32:07;;;;;;;;;;;;;;;23.02;38.20;99692.13;4992272;28;7110;-71
2023/07/23 05:34:33;;;;;;;;;;;;;;;23.03;38.42;99699.06;4992574;28;6772;-71
2023/07/23 05:36:59;;;;;;;;;;;;;;;23.07;38.25;99686.81;4993620;28;6970;-71
2023/07/23 05:39:25;;;;;;;;;;;;;;;23.09;38.51;99698.09;5008970;28;6871;-70
2023/07/23 05:41:51;;;;;;;;;;;;;;;23.13;38.67;99695.41;5006339;28;7022;-71
2023/07/23 05:44:17;;;;;;;;;;;;;;;23.17;38.71;99694.47;4986249;28;6792;-71
2023/07/23 05:46:43;;;;;;;;;;;;;;;23.21;38.13;99697.06;4991531;28;6918;-71
2023/07/23 05:49:08;;;;;;;;;;;;;;;23.23;38.47;99677.00;4992996;28;7286;-71
2023/07/23 05:51:34;;;;;;;;;;;;;;;23.23;38.55;99703.13;4993764;28;6939;-71
2023/07/23 05:53:59;;;;;;;;;;;;;;;23.22;38.66;99701.41;5006222;28;6787;-69
2023/07/23 05:56:25;;;;;;;;;;;;;;;23.22;38.62;99698.78;4991493;28;8090;-69
2023/07/23 05:58:50;;;;;;;;;;;;;;;23.21;38.95;99686.59;4992108;28;7007;-70
2023/07/23 06:01:16;;;;;;;;;;;;;;;23.22;38.57;99694.41;5003767;28;6792;-72
2023/07/23 06:03:41;;;;;;;;;;;;;;;23.24;38.71;99676.09;4988719;28;6981;-70
2023/07/23 06:06:06;;;;;;;;;;;;;;;23.25;38.50;99690.88;5006868;28;7218;-70
2023/07/23 06:08:32;;;;;;;;;;;;;;;23.25;38.36;99681.31;5007996;28;6972;-70
2023/07/23 06:10:57;;;;;;;;;;;;;;;23.27;38.53;99681.25;5008482;28;7112;-69
2023/07/23 06:13:23;;;;;;;;;;;;;;;23.28;38.36;99683.91;5006230;28;6772;-70
2023/07/23 06:15:48;;;;;;;;;;;;;;;23.31;38.60;99685.59;5009878;28;6788;-70
2023/07/23 06:18:14;;;;;;;;;;;;;;;23.36;38.76;99688.16;5011064;28;7121;-70
2023/07/23 06:20:39;;;;;;;;;;;;;;;23.41;38.90;99687.19;4987249;28;7265;-71
2023/07/23 06:23:05;;;;;;;;;;;;;;;23.46;38.97;99686.22;4996794;28;6942;-70
2023/07/23 06:25:30;;;;;;;;;;;;;;;23.50;38.69;99693.16;4989258;28;6848;-70
2023/07/23 06:27:56;;;;;;;;;;;;;;;23.53;38.42;99687.84;4996671;28;6924;-69
2023/07/23 06:30:21;;;;;;;;;;;;;;;23.55;38.22;99694.78;4992085;28;6800;-70
2023/07/23 06:32:47;;;;;;;;;;;;;;;23.55;38.60;99686.06;5007769;28;6851;-69
2023/07/23 06:35:12;;;;;;;;;;;;;;;23.58;38.35;99686.03;4988975;28;6801;-69
2023/07/23 06:37:40;;;;;;;;;;;;;;;23.59;38.88;99706.06;4994812;28;6855;-70
2023/07/23 06:40:06;;;;;;;;;;;;;;;23.59;38.22;99708.69;4982151;28;7161;-70
2023/07/23 06:42:32;;;;;;;;;;;;;;;23.62;38.32;99708.63;4981103;28;7033;-70
2023/07/23 06:44:57;;;;;;;;;;;;;;;23.64;39.01;99698.16;4983552;28;7200;-70
2023/07/23 06:47:23;;;;;;;;;;;;;;;23.71;39.00;99712.84;5009586;28;6796;-70
2023/07/23 06:49:48;;;;;;;;;;;;;;;23.77;38.88;99702.25;4993447;28;6784;-70
2023/07/23 06:52:14;;;;;;;;;;;;;;;23.81;38.64;99718.78;4991326;28;6803;-70
2023/07/23 06:54:42;;;;;;;;;;;;;;;23.85;38.74;99723.03;5010201;28;6856;-70
2023/07/23 06:57:08;;;;;;;;;;;;;;;23.84;39.20;99714.34;5015407;28;7428;-70
2023/07/23 06:59:34;;;;;;;;;;;;;;;23.79;39.13;99721.41;5015684;28;6823;-70
2023/07/23 07:01:59;;;;;;;;;;;;;;;23.69;39.17;99715.47;5012416;28;7219;-71
2023/07/23 07:04:25;;;;;;;;;;;;;;;23.60;39.84;99727.84;5013697;28;8022;-71
2023/07/23 07:06:50;;;;;;;;;;;;;;;23.48;40.08;99734.16;5013133;28;6857;-70
2023/07/23 07:09:16;;;;;;;;;;;;;;;23.31;40.49;99745.72;4993334;28;6780;-71
2023/07/23 07:11:42;;;;;;;;;;;;;;;23.00;41.79;99735.69;4996897;28;6815;-70
2023/07/23 07:14:07;;;;;;;;;;;;;;;22.66;42.82;99736.13;4998805;28;7237;-69
2023/07/23 07:16:33;;;;;;;;;;;;;;;22.39;43.78;99743.38;5010508;28;6812;-70
2023/07/23 07:18:58;;;;;;;;;;;;;;;22.21;44.61;99747.91;4987685;28;6826;-70
2023/07/23 07:21:24;;;;;;;;;;;;;;;22.09;45.13;99741.09;5010383;28;6783;-70
2023/07/23 07:23:49;;;;;;;;;;;;;;;21.91;46.27;99749.94;5004356;28;6867;-70
2023/07/23 07:26:15;;;;;;;;;;;;;;;21.70;46.66;99744.03;4997254;28;8085;-70
2023/07/23 07:28:40;;;;;;;;;;;;;;;21.51;47.46;99744.16;4997513;28;6800;-71
2023/07/23 07:31:06;;;;;;;;;;;;;;;21.34;48.03;99749.50;4999972;28;6911;-70
2023/07/23 07:33:31;;;;;;;;;;;;;;;21.21;48.55;99755.69;4994218;28;6783;-71
2023/07/23 07:35:59;;;;;;;;;;;;;;;21.10;49.13;99755.72;4984785;28;6979;-71
2023/07/23 07:38:25;;;;;;;;;;;;;;;20.98;49.71;99753.19;4986994;28;7224;-71
2023/07/23 07:40:51;;;;;;;;;;;;;;;20.85;50.63;99748.03;4985897;28;7028;-72
2023/07/23 07:43:17;;;;;;;;;;;;;;;20.74;50.83;99752.41;5000283;28;6904;-72
2023/07/23 07:45:49;;;;;;;;;;;;;;;20.67;51.50;99746.34;5018171;28;6994;-72
2023/07/23 07:48:15;;;;;;;;;;;;;;;20.65;52.31;99750.69;5004350;28;6812;-72
2023/07/23 07:50:40;;;;;;;;;;;;;;;20.63;52.67;99755.91;4994044;28;6868;-72
2023/07/23 07:53:06;;;;;;;;;;;;;;;20.65;53.82;99746.34;4996645;28;6788;-72
2023/07/23 07:55:38;;;;;;;;;;;;;;;20.74;54.02;99752.41;5015006;28;6965;-72
2023/07/23 07:58:04;;;;;;;;;;;;;;;20.92;54.39;99749.75;5007953;28;7633;-72
2023/07/23 08:00:30;;;;;;;;;;;;;;;21.11;54.56;99748.78;4995438;28;6791;-72
2023/07/23 08:02:56;;;;;;;;;;;;;;;21.22;54.39;99746.97;4996875;28;6788;-72
2023/07/23 08:05:23;;;;;;;;;;;;;;;21.26;54.46;99746.06;4979221;28;7454;-72
2023/07/23 08:07:49;;;;;;;;;;;;;;;21.28;54.56;99743.47;4996107;28;6823;-72
2023/07/23 08:10:16;;;;;;;;;;;;;;;21.22;54.40;99749.59;4997177;28;6875;-72
2023/07/23 08:12:42;;;;;;;;;;;;;;;21.16;54.53;99757.44;5012436;28;6815;-72
2023/07/23 08:15:08;;;;;;;;;;;;;;;21.08;54.52;99750.50;5000505;28;7170;-71
2023/07/23 08:17:34;;;;;;;;;;;;;;;21.03;54.89;99751.41;5014889;28;7235;-72
2023/07/23 08:20:00;;;;;;;;;;;;;;;21.00;54.97;99759.25;5017343;28;7425;-72
2023/07/23 08:22:25;;;;;;;;;;;;;;;20.96;55.04;99755.81;4993024;28;6851;-72
2023/07/23 08:24:51;;;;;;;;;;;;;;;21.08;55.28;99757.47;4998004;28;6780;-73
2023/07/23 08:27:21;;;;;;;;;;;;;;;21.26;54.92;99763.47;5015631;28;7334;-72
2023/07/23 08:29:47;;;;;;;;;;;;;;;21.41;54.32;99759.88;4997471;28;6947;-72
2023/07/23 08:32:16;;;;;;;;;;;;;;;21.58;54.50;99751.94;5011142;28;6784;-72
2023/07/23 08:34:43;;;;;;;;;;;;;;;21.71;54.09;99745.75;4992911;28;6812;-72
2023/07/23 08:37:10;;;;;;;;;;;;;;;21.85;53.82;99742.19;5016500;28;7031;-72
2023/07/23 08:39:35;;;;;;;;;;;;;;;21.96;53.71;99748.16;5001906;28;7420;-72
2023/07/23 08:42:30;;;;;;;;;;;;;;;22.05;53.45;99749.81;4999773;28;7314;-72
2023/07/23 08:45:33;;;;;;;;;;;;;;;22.08;52.65;99743.72;4973479;28;6815;-72
2023/07/23 08:48:15;;;;;;;;;;;;;;;22.09;52.71;99741.09;5012615;28;7000;-72
2023/07/23 08:50:49;;;;;;;;;;;;;;;22.16;52.49;99741.88;4999517;28;7022;-72
2023/07/23 08:53:16;;;;;;;;;;;;;;;22.27;52.46;99742.63;4996958;28;6824;-72
2023/07/23 08:55:44;;;;;;;;;;;;;;;22.38;52.22;99757.31;5001729;28;6811;-72
2023/07/23 08:58:15;;;;;;;;;;;;;;;22.46;52.00;99734.59;4980432;28;7017;-72
2023/07/23 09:00:45;;;;;;;;;;;;;;;22.53;51.95;99751.97;4999135;28;6796;-72
2023/07/23 09:03:14;;;;;;;;;;;;;;;22.58;51.24;99759.72;5014600;28;6795;-72
2023/07/23 09:05:40;;;;;;;;;;;;;;;22.62;51.70;99761.41;4986572;28;8437;-72
2023/07/23 09:08:06;;;;;;;;;;;;;;;22.68;51.83;99763.09;4999889;28;6800;-72
2023/07/23 09:10:32;;;;;;;;;;;;;;;22.78;51.38;99756.84;5015601;28;6926;-72
2023/07/23 09:12:57;;;;;;;;;;;;;;;22.88;50.89;99753.25;5000444;28;6796;-72
2023/07/23 09:15:23;;;;;;;;;;;;;;;22.89;51.15;99760.22;5015397;28;6824;-72
2023/07/23 09:17:51;;;;;;;;;;;;;;;22.80;51.08;99755.13;5001892;28;6788;-72
2023/07/23 09:20:18;;;;;;;;;;;;;;;22.74;50.91;99750.84;5018208;28;6800;-72
2023/07/23 09:22:46;;;;;;;;;;;;;;;22.74;51.54;99756.06;4998053;28;6971;-73
2023/07/23 09:25:13;;;;;;;;;;;;;;;22.81;50.89;99756.84;5001000;28;6979;-72
2023/07/23 09:27:42;;;;;;;;;;;;;;;22.84;51.19;99756.78;4994318;28;7403;-71
2023/07/23 09:30:08;;;;;;;;;;;;;;;22.97;51.85;99762.72;4986670;28;7260;-71
2023/07/23 09:32:33;;;;;;;;;;;;;;;23.16;51.34;99758.09;4991443;28;6803;-71
2023/07/23 09:34:59;;;;;;;;;;;;;;;23.40;51.16;99757.78;5011300;28;6767;-71
2023/07/23 09:37:28;;;;;;;;;;;;;;;23.67;50.54;99747.78;5015928;28;6799;-71
2023/07/23 09:39:57;;;;;;;;;;;;;;;23.84;50.37;99750.09;4996728;28;6840;-72
2023/07/23 09:42:23;;;;;;;;;;;;;;;24.04;50.01;99759.34;5015691;28;6808;-72
2023/07/23 09:44:49;;;;;;;;;;;;;;;24.29;49.96;99754.59;5008555;28;6991;-72
2023/07/23 09:47:15;;;;;;;;;;;;;;;24.60;49.14;99750.47;4991475;28;7440;-71
2023/07/23 09:49:42;;;;;;;;;;;;;;;24.93;48.77;99753.31;4995245;28;6788;-71
2023/07/23 09:52:08;;;;;;;;;;;;;;;25.36;48.49;99749.72;4994900;28;7094;-72
2023/07/23 09:54:37;;;;;;;;;;;;;;;25.84;47.41;99739.81;4996414;28;7202;-72
2023/07/23 09:57:03;;;;;;;;;;;;;;;26.15;46.53;99753.91;4987603;28;7253;-72
2023/07/23 09:59:30;;;;;;;;;;;;;;;26.35;45.60;99750.75;5003145;28;8224;-72
2023/07/23 10:01:56;;;;;;;;;;;;;;;26.47;44.66;99760.06;5016978;28;6990;-72
2023/07/23 10:04:23;;;;;;;;;;;;;;;26.52;44.65;99760.81;5001085;28;6803;-72
2023/07/23 10:06:49;;;;;;;;;;;;;;;26.47;43.71;99765.31;4995636;28;6788;-72
2023/07/23 10:09:15;;;;;;;;;;;;;;;26.41;43.83;99757.59;4996483;28;6775;-72
2023/07/23 10:11:41;;;;;;;;;;;;;;;26.27;43.61;99750.09;4998454;28;6914;-71
2023/07/23 10:14:07;;;;;;;;;;;;;;;26.07;43.36;99761.97;4997400;28;6787;-72
2023/07/23 10:16:40;;;;;;;;;;;;;;;25.88;43.78;99759.88;4999759;28;6898;-72
2023/07/23 10:19:07;;;;;;;;;;;;;;;25.76;44.33;99761.03;5012982;28;6820;-72
2023/07/23 10:21:35;;;;;;;;;;;;;;;25.77;44.46;99761.88;4981264;28;7006;-70
2023/07/23 10:24:02;;;;;;;;;;;;;;;25.87;44.56;99768.59;5013405;28;7095;-71
2023/07/23 10:26:30;;;;;;;;;;;;;;;25.97;43.91;99776.25;4976766;28;7165;-71
2023/07/23 10:28:58;;;;;;;;;;;;;;;25.99;43.79;99761.34;5004014;28;6796;-71
2023/07/23 10:31:28;;;;;;;;;;;;;;;25.98;43.91;99760.47;5003111;28;7173;-71
2023/07/23 10:33:54;;;;;;;;;;;;;;;26.05;43.98;99755.91;5018009;28;6788;-71
2023/07/23 10:36:22;;;;;;;;;;;;;;;26.16;43.66;99768.75;5005743;28;6847;-71
2023/07/23 10:39:14;;;;;;;;;;;;;;;26.26;43.79;99762.38;4998692;28;6986;-71
2023/07/23 10:41:48;;;;;;;;;;;;;;;26.50;44.23;99759.13;5003497;28;6823;-72
2023/07/23 10:44:21;;;;;;;;;;;;;;;26.90;43.34;99755.34;4978731;28;7301;-72
2023/07/23 10:46:46;;;;;;;;;;;;;;;27.18;42.61;99759.78;5015133;28;7083;-71
2023/07/23 10:49:19;;;;;;;;;;;;;;;27.28;42.05;99766.47;5001106;28;6772;-71
2023/07/23 10:51:45;;;;;;;;;;;;;;;27.36;42.52;99762.72;4996450;28;6807;-71
2023/07/23 10:54:11;;;;;;;;;;;;;;;27.41;41.90;99763.44;5015122;28;6918;-71
2023/07/23 10:56:40;;;;;;;;;;;;;;;27.43;41.75;99767.75;4995480;28;6872;-72
2023/07/23 10:59:20;;;;;;;;;;;;;;;27.50;41.37;99765.75;4995398;28;6811;-72
2023/07/23 11:01:49;;;;;;;;;;;;;;;27.50;41.68;99759.66;4984357;28;7226;-71
2023/07/23 11:04:17;;;;;;;;;;;;;;;27.49;41.80;99753.53;5018033;28;6795;-71
2023/07/23 11:07:00;;;;;;;;;;;;;;;27.45;41.45;99752.75;5015332;28;6803;-72
2023/07/23 11:09:33;;;;;;;;;;;;;;;27.34;41.34;99762.78;5003155;28;6854;-71
2023/07/23 11:11:59;;;;;;;;;;;;;;;27.21;41.31;99764.91;5000802;28;6800;-71
2023/07/23 11:14:30;;;;;;;;;;;;;;;27.04;41.59;99762.81;5001690;28;7063;-71
2023/07/23 11:17:00;;;;;;;;;;;;;;;26.88;41.98;99768.53;5014311;28;6848;-72
2023/07/23 11:19:27;;;;;;;;;;;;;;;26.71;42.19;99760.28;5001158;28;7171;-71
2023/07/23 11:21:58;;;;;;;;;;;;;;;26.58;42.33;99776.38;5019046;28;6827;-72
2023/07/23 11:24:26;;;;;;;;;;;;;;;26.47;42.49;99767.94;4986000;28;6877;-71
2023/07/23 11:26:55;;;;;;;;;;;;;;;26.39;42.67;99762.91;5012427;28;7086;-71
2023/07/23 11:29:23;;;;;;;;;;;;;;;26.31;42.65;99760.47;4994653;28;6953;-71
2023/07/23 11:31:48;;;;;;;;;;;;;;;26.25;43.10;99762.41;5002857;28;6872;-71
2023/07/23 11:34:15;;;;;;;;;;;;;;;26.23;43.49;99769.50;5000575;28;6772;-71
2023/07/23 11:36:41;;;;;;;;;;;;;;;26.25;43.09;99758.03;5002303;28;6986;-71
2023/07/23 11:39:07;;;;;;;;;;;;;;;26.24;43.27;99760.69;5018624;28;6978;-71
2023/07/23 11:41:39;;;;;;;;;;;;;;;26.25;43.32;99765.03;4996509;28;6792;-71
2023/07/23 11:44:06;;;;;;;;;;;;;;;26.19;43.25;99760.78;4997311;28;7003;-70
2023/07/23 11:46:36;;;;;;;;;;;;;;;26.18;43.47;99761.69;5003051;28;6938;-71
2023/07/23 11:49:07;;;;;;;;;;;;;;;26.15;43.71;99757.38;5009857;28;6887;-71
2023/07/23 11:51:33;;;;;;;;;;;;;;;26.11;43.40;99766.25;5014223;28;6888;-71
2023/07/23 11:54:17;;;;;;;;;;;;;;;26.06;43.75;99773.38;4999014;28;6816;-71
2023/07/23 11:56:47;;;;;;;;;;;;;;;26.02;43.89;99766.50;4999754;28;6820;-70
2023/07/23 11:59:15;;;;;;;;;;;;;;;26.02;44.06;99772.59;4971130;28;7070;-70
2023/07/23 12:01:41;;;;;;;;;;;;;;;25.99;44.22;99758.72;4973811;28;7319;-70
2023/07/23 12:04:08;;;;;;;;;;;;;;;25.90;44.15;99784.31;5014153;28;6791;-70
2023/07/23 12:06:39;;;;;;;;;;;;;;;25.79;44.16;99773.22;5016171;28;7119;-71
2023/07/23 12:09:07;;;;;;;;;;;;;;;25.71;44.40;99772.53;5016294;28;6816;-70
2023/07/23 12:11:32;;;;;;;;;;;;;;;25.73;44.81;99770.75;4997124;28;6985;-70
2023/07/23 12:14:05;;;;;;;;;;;;;;;25.83;44.73;99763.47;5007949;28;6795;-70
2023/07/23 12:16:38;;;;;;;;;;;;;;;25.92;44.88;99764.13;4999514;28;6800;-70
2023/07/23 12:19:08;;;;;;;;;;;;;;;25.99;44.59;99756.09;5008981;28;6924;-72
2023/07/23 12:21:37;;;;;;;;;;;;;;;26.03;44.51;99758.59;5012115;28;6996;-70
2023/07/23 12:24:18;;;;;;;;;;;;;;;26.07;44.84;99768.09;5014227;28;9701;-70
2023/07/23 12:26:55;;;;;;;;;;;;;;;26.23;44.89;99758.97;4995682;28;7283;-70
2023/07/23 12:29:22;;;;;;;;;;;;;;;26.40;44.74;99756.75;5009732;28;7056;-70
2023/07/23 12:32:08;;;;;;;;;;;;;;;26.60;44.73;99755.31;4994584;28;7007;-69
2023/07/23 12:34:33;;;;;;;;;;;;;;;26.82;44.40;99757.31;4978798;28;6863;-70
2023/07/23 12:36:59;;;;;;;;;;;;;;;26.92;44.00;99756.16;5011015;28;6943;-70
2023/07/23 12:39:24;;;;;;;;;;;;;;;27.02;43.59;99748.88;5011461;28;6780;-70
2023/07/23 12:41:49;;;;;;;;;;;;;;;27.14;43.54;99747.63;4998855;28;6947;-70
2023/07/23 12:44:15;;;;;;;;;;;;;;;27.34;43.83;99730.34;5013264;28;6783;-70
2023/07/23 12:46:41;;;;;;;;;;;;;;;27.74;42.90;99729.06;4995415;28;6911;-70
2023/07/23 12:49:06;;;;;;;;;;;;;;;28.21;42.57;99738.00;5003390;28;6779;-70
2023/07/23 12:51:31;;;;;;;;;;;;;;;28.70;42.04;99735.31;5013872;28;6788;-70
2023/07/23 12:53:57;;;;;;;;;;;;;;;28.91;41.32;99736.31;5015243;28;6834;-71
2023/07/23 12:56:22;;;;;;;;;;;;;;;28.90;40.60;99744.25;5014110;28;6943;-70